Lassen Volcanic Natl Park, California
Current Conditions -  °F | °C
As of 3:53 PM on Monday 24 Nov 2014 (Local Time) from KRDD Reporting Station
Clear Clear  
Wind Chill: 68°   Ceiling: Unl
Heat Index: 68°   Visibility: 10mi
Dew Point: 33°   Wind: 0mph
Humidity: 27%   Direction: NA
Pressure: 30.33"   Gusts: NA
Location:  40.5°N, 121.32°W
Report Text: KRDD 242353Z AUTO 00000KT 10SM CLR 20/01 A3033 RMK AO2 SLP268 T02000006 10200 20128 57009
Loading
Personal Weather Stations






























Interactive Weather Map New forecast layout! Learn more

10-Day Weather Forecast

Advertisements
Track Severe Weather on mobile